Terminal Aerodrome Forecast
Issued by NWS Rapid City, SD

Home | Current Version | Previous Version | Text Only | Print | Product List | Glossary On
Versions: 1 2 3 4 5 6 7 8 9 10 11 12
000
FTUS43 KUNR 231100
TAFRAP
TAF
KRAP 231120Z 2312/2412 30006KT P6SM VCSH SCT080 BKN120
     FM231500 34009KT P6SM SCT080 BKN150
     FM240200 29005KT P6SM SCT250=

USA.gov is the U.S. government's official web portal to all federal, state and local government web resources and services.